»·PEaware :: N701DB KLAS-KSAN

N701DB :: KLAS-KSAN

FLIGHT INFORMATION

Flight Status: Arrived
Operator: Privately registered:
United States
More flights under this callsign
Pilot: Ryan B. (8502)
Aircraft: GULFSTREAM G-1159C GULFSTREAM 4
(GLF4)
More flights by this aircraft type
Origin: KLAS McCarran Intl
United States
Destination: KSAN San Diego Intl-Lindbergh
United States
More flights between these airports :: More routes between these airports
Route: BOACH8 LVELL LUCKI1
File this flight plan on PilotEdge
Remarks:
Altitude:
(Current/Filed)
36,000ft
Speed:
(Current/Filed)
490kts
Departed: 06-Dec-17 04:45 PM
Arrived: 06-Dec-17 05:25 PM
Distance/Time
Traveled:
225nm/0:40
Distance/Time
To Go:
Arrived

Flight Plot

Page will automatically refresh every two minutes.

Flight plan parsing failed; only flown route is shown


Map Options




Map Legend


Flown Route
Filed Route
Departure Airport
Arrival Airport
Navaid (VOR, NDB)
Fix

Horizontal Profiles

Position Reports

Time Latitude Longitude Heading Altitude Ground
Speed
06-Dec-17 16:41 36.081182 -115.171691 93 2175ft 0kts
06-Dec-17 16:42 36.081182 -115.171691 93 2175ft 0kts
06-Dec-17 16:43 36.081182 -115.171691 93 2175ft 0kts
06-Dec-17 16:44 36.081182 -115.171691 93 2175ft 0kts
06-Dec-17 16:45 36.081182 -115.171691 93 2175ft 0kts
06-Dec-17 16:46 36.081182 -115.171691 93 2175ft 0kts
06-Dec-17 16:47 36.081415 -115.171334 33 2173ft 7kts
06-Dec-17 16:48 36.080265 -115.169859 207 2172ft 11kts
06-Dec-17 16:49 36.078297 -115.168663 25 2175ft 15kts
06-Dec-17 16:50 36.126732 -115.154974 352 5814ft 307kts
06-Dec-17 16:51 36.172789 -115.232605 258 13566ft 333kts
06-Dec-17 16:52 36.124357 -115.315917 190 18953ft 350kts
06-Dec-17 16:53 36.017710 -115.293315 165 21152ft 441kts
06-Dec-17 16:54 35.911244 -115.282915 184 25220ft 446kts
06-Dec-17 16:55 35.791626 -115.288954 185 28339ft 471kts
06-Dec-17 16:56 35.663358 -115.295185 186 32478ft 464kts
06-Dec-17 16:57 35.531876 -115.300551 186 35995ft 487kts
06-Dec-17 16:58 35.390367 -115.306185 186 36401ft 531kts
06-Dec-17 16:59 35.242886 -115.311957 186 36364ft 536kts
06-Dec-17 17:00 35.094588 -115.317719 186 36311ft 536kts
06-Dec-17 17:01 34.947005 -115.323459 186 36285ft 531kts
06-Dec-17 17:02 34.803736 -115.330136 193 36271ft 516kts
06-Dec-17 17:03 34.669154 -115.380040 204 36290ft 509kts
06-Dec-17 17:04 34.536555 -115.437857 204 36351ft 509kts
06-Dec-17 17:05 34.404061 -115.495563 204 36356ft 509kts
06-Dec-17 17:06 34.277835 -115.565591 215 36363ft 501kts
06-Dec-17 17:07 34.154005 -115.641066 206 36031ft 500kts
06-Dec-17 17:08 34.027184 -115.701286 205 33822ft 494kts
06-Dec-17 17:09 33.900588 -115.761394 206 32535ft 490kts
06-Dec-17 17:10 33.778475 -115.821166 206 31430ft 478kts
06-Dec-17 17:11 33.655675 -115.878867 205 28947ft 475kts
06-Dec-17 17:12 33.536353 -115.937344 214 26971ft 460kts
06-Dec-17 17:13 33.455985 -116.047050 239 24564ft 436kts
06-Dec-17 17:14 33.387822 -116.163724 239 22408ft 428kts
06-Dec-17 17:15 33.307628 -116.264776 212 20482ft 429kts
06-Dec-17 17:16 33.203724 -116.328469 207 18438ft 421kts
06-Dec-17 17:17 33.100409 -116.388937 206 16347ft 410kts
06-Dec-17 17:18 33.001811 -116.450994 217 14552ft 391kts
06-Dec-17 17:19 32.923047 -116.527654 220 13911ft 358kts
06-Dec-17 17:20 32.848585 -116.602575 220 12597ft 351kts
06-Dec-17 17:21 32.778590 -116.675661 236 10032ft 339kts
06-Dec-17 17:22 32.735715 -116.758857 243 7345ft 283kts
06-Dec-17 17:23 32.702810 -116.834567 252 5989ft 233kts
06-Dec-17 17:24 32.679619 -116.901130 251 5851ft 220kts
06-Dec-17 17:25 32.679675 -116.969732 286 5011ft 207kts
06-Dec-17 17:26 32.695250 -117.031874 284 4172ft 192kts
06-Dec-17 17:27 32.709357 -117.089904 287 2913ft 178kts
06-Dec-17 17:28 32.721580 -117.139947 286 1565ft 154kts
06-Dec-17 17:29 32.731886 -117.182893 288 40ft 121kts
06-Dec-17 17:30 32.735341 -117.201255 107 18ft 16kts
06-Dec-17 17:31 32.733632 -117.194194 105 21ft 41kts
06-Dec-17 17:32 32.732956 -117.184267 13 21ft 17kts
06-Dec-17 17:33 32.732209 -117.179394 108 23ft 18kts
06-Dec-17 17:34 32.732576 -117.178508 195 24ft 0kts
06-Dec-17 17:35 32.732576 -117.178508 195 24ft 0kts
06-Dec-17 17:36 32.732576 -117.178508 195 24ft 0kts
06-Dec-17 17:37 32.732576 -117.178508 195 24ft 0kts
06-Dec-17 17:38 32.732576 -117.178508 195 24ft 0kts
06-Dec-17 17:39 32.732576 -117.178508 195 24ft 0kts
06-Dec-17 17:40 32.732576 -117.178508 195 24ft 0kts
06-Dec-17 17:41 32.732576 -117.178508 195 24ft 0kts
06-Dec-17 17:42 32.732576 -117.178508 195 24ft 0kts
06-Dec-17 17:44 32.732576 -117.178508 195 24ft 0kts
06-Dec-17 17:45 32.732576 -117.178508 195 24ft 0kts
06-Dec-17 17:46 32.732576 -117.178508 195 24ft 0kts

Navigation Log

Ident Type
Flight plan parsing failed, navigation log unavailable